createdAt,value
2022-12-15T00:02:36.195Z,92.62
2022-12-15T00:05:23.375Z,92.91
2022-12-15T00:08:08.973Z,93.10
2022-12-15T00:10:54.774Z,92.96
2022-12-15T00:13:40.898Z,92.29
2022-12-15T00:16:26.843Z,92.40
2022-12-15T00:19:12.297Z,92.85
2022-12-15T00:21:58.263Z,92.49
2022-12-15T00:24:43.865Z,92.07
2022-12-15T00:27:29.784Z,92.12
2022-12-15T00:30:15.750Z,92.39
2022-12-15T00:33:01.597Z,92.32
2022-12-15T00:35:47.524Z,92.90
2022-12-15T00:38:33.799Z,93.54
2022-12-15T00:41:01.615Z,92.93
2022-12-15T00:43:30.356Z,92.75
2022-12-15T00:46:16.971Z,92.82
2022-12-15T00:48:44.412Z,92.88
2022-12-15T00:51:11.354Z,92.77
2022-12-15T00:53:57.713Z,92.33
2022-12-15T00:56:43.487Z,92.47
2022-12-15T00:59:30.427Z,92.50
2022-12-15T01:02:16.602Z,92.58
2022-12-15T01:05:02.657Z,91.84
2022-12-15T01:07:49.976Z,92.53
2022-12-15T01:10:37.746Z,92.48
2022-12-15T01:13:24.106Z,91.86
2022-12-15T01:16:10.074Z,92.73
2022-12-15T01:18:55.867Z,92.71
2022-12-15T01:21:25.200Z,92.26
2022-12-15T01:23:53.210Z,92.47
2022-12-15T01:26:20.785Z,92.89
2022-12-15T01:28:47.717Z,93.89
2022-12-15T01:31:15.072Z,93.17
2022-12-15T01:33:44.888Z,92.77
2022-12-15T01:36:12.227Z,92.97
2022-12-15T01:38:39.199Z,92.82
2022-12-15T01:41:09.502Z,91.36
2022-12-15T01:43:37.915Z,91.19
2022-12-15T01:46:08.821Z,90.98
2022-12-15T01:48:48.867Z,91.25
2022-12-15T01:51:41.037Z,91.52
2022-12-15T01:54:19.476Z,91.91
2022-12-15T01:56:50.905Z,90.82
2022-12-15T01:59:25.877Z,90.96
2022-12-15T02:01:53.032Z,91.01
2022-12-15T02:04:21.366Z,91.80
2022-12-15T02:06:48.593Z,91.57
2022-12-15T02:09:15.745Z,91.84
2022-12-15T02:12:00.203Z,91.76
2022-12-15T02:14:39.055Z,91.37
2022-12-15T02:17:15.240Z,91.88
2022-12-15T02:20:33.986Z,91.90
2022-12-15T02:23:01.356Z,91.38
2022-12-15T02:26:03.048Z,92.13
2022-12-15T02:28:55.606Z,91.96
2022-12-15T02:31:50.113Z,92.25
2022-12-15T02:34:25.660Z,92.11
2022-12-15T02:37:00.246Z,92.14
2022-12-15T02:39:27.505Z,91.86
2022-12-15T02:41:54.536Z,92.20
2022-12-15T02:44:44.927Z,92.41
2022-12-15T02:47:33.536Z,92.03
2022-12-15T02:50:28.685Z,92.85
2022-12-15T02:52:58.926Z,93.72
2022-12-15T02:55:32.977Z,93.04
2022-12-15T02:58:19.487Z,92.78
2022-12-15T03:01:13.989Z,93.17
2022-12-15T03:03:42.327Z,92.83
2022-12-15T03:06:09.586Z,92.78
2022-12-15T03:08:36.887Z,93.13
2022-12-15T03:11:04.055Z,92.82
2022-12-15T03:13:32.069Z,93.47
2022-12-15T03:16:00.804Z,92.89
2022-12-15T03:18:28.529Z,92.49
2022-12-15T03:20:55.754Z,92.19
2022-12-15T03:23:23.515Z,92.07
2022-12-15T03:25:50.836Z,92.51
2022-12-15T03:28:18.116Z,92.18
2022-12-15T03:30:45.579Z,92.00
2022-12-15T03:33:17.945Z,92.43
2022-12-15T03:35:44.835Z,92.28
2022-12-15T03:38:11.938Z,91.54
2022-12-15T03:40:39.073Z,91.47
2022-12-15T03:43:06.168Z,92.05
2022-12-15T03:45:33.128Z,91.92
2022-12-15T03:48:02.375Z,92.62
2022-12-15T03:50:29.928Z,92.95
2022-12-15T03:53:02.351Z,92.19
2022-12-15T03:55:30.057Z,91.93
2022-12-15T03:57:57.793Z,92.13
2022-12-15T04:00:25.446Z,92.58
2022-12-15T04:02:52.959Z,93.13
2022-12-15T04:05:30.325Z,92.66
2022-12-15T04:07:58.907Z,92.86
2022-12-15T04:10:33.650Z,91.94
2022-12-15T04:13:09.425Z,91.46
2022-12-15T04:15:37.885Z,92.19
2022-12-15T04:18:08.167Z,91.92
2022-12-15T04:20:35.295Z,92.45
2022-12-15T04:23:02.254Z,91.76
2022-12-15T04:25:47.838Z,92.13
2022-12-15T04:28:33.467Z,92.23
2022-12-15T04:31:19.333Z,91.95
2022-12-15T04:34:12.154Z,92.36
2022-12-15T04:36:59.619Z,92.64
2022-12-15T04:39:45.136Z,92.34
2022-12-15T04:42:31.093Z,92.41
2022-12-15T04:45:21.042Z,92.55
2022-12-15T04:48:07.198Z,92.50
2022-12-15T04:50:53.367Z,92.61
2022-12-15T04:53:40.453Z,92.77
2022-12-15T04:56:30.924Z,92.89
2022-12-15T04:59:17.010Z,92.24
2022-12-15T05:02:02.825Z,91.87
2022-12-15T05:04:48.688Z,92.24
2022-12-15T05:07:35.006Z,92.29
2022-12-15T05:10:21.466Z,92.75
2022-12-15T05:13:07.149Z,91.69
2022-12-15T05:15:53.611Z,92.61
2022-12-15T05:18:39.915Z,92.55
2022-12-15T05:21:26.167Z,93.16
2022-12-15T05:24:11.973Z,93.41
2022-12-15T05:26:57.776Z,92.29
2022-12-15T05:29:43.355Z,92.90
2022-12-15T05:32:10.618Z,91.90
2022-12-15T05:34:38.585Z,91.52
2022-12-15T05:37:08.312Z,91.65
2022-12-15T05:39:35.358Z,91.16
2022-12-15T05:42:02.476Z,91.87
2022-12-15T05:44:29.646Z,91.59
2022-12-15T05:46:57.023Z,91.98
2022-12-15T05:49:24.210Z,92.02
2022-12-15T05:51:51.336Z,91.90
2022-12-15T05:54:19.936Z,92.62
2022-12-15T05:56:50.426Z,92.74
2022-12-15T05:59:19.457Z,92.15
2022-12-15T06:01:46.943Z,92.92
2022-12-15T06:04:14.774Z,92.47
2022-12-15T06:06:42.184Z,92.03
2022-12-15T06:09:10.112Z,92.26
2022-12-15T06:11:37.835Z,92.25
2022-12-15T06:14:05.215Z,93.22
2022-12-15T06:16:32.529Z,92.87
2022-12-15T06:19:01.345Z,92.89
2022-12-15T06:21:31.106Z,93.44
2022-12-15T06:23:59.116Z,93.07
2022-12-15T06:26:29.608Z,92.96
2022-12-15T06:28:58.984Z,93.56
2022-12-15T06:31:26.209Z,93.15
2022-12-15T06:34:00.875Z,93.13
2022-12-15T06:36:31.228Z,92.77
2022-12-15T06:39:03.137Z,92.95
2022-12-15T06:41:31.396Z,94.05
2022-12-15T06:43:59.545Z,93.29
2022-12-15T06:46:28.189Z,93.71
2022-12-15T06:48:55.369Z,93.06
2022-12-15T06:51:22.869Z,92.96
2022-12-15T06:53:51.307Z,92.98
2022-12-15T06:56:24.483Z,93.01
2022-12-15T06:58:56.324Z,92.88
2022-12-15T07:01:24.608Z,93.57
2022-12-15T07:03:53.711Z,92.86
2022-12-15T07:06:21.665Z,93.02
2022-12-15T07:08:56.712Z,92.88
2022-12-15T07:11:24.174Z,92.32
2022-12-15T07:13:55.144Z,92.98
2022-12-15T07:16:23.498Z,92.39
2022-12-15T07:18:51.476Z,92.46
2022-12-15T07:21:19.214Z,92.42
2022-12-15T07:23:54.594Z,92.21
2022-12-15T07:26:24.395Z,92.16
2022-12-15T07:28:53.165Z,92.43
2022-12-15T07:31:20.723Z,92.22
2022-12-15T07:33:48.673Z,91.77
2022-12-15T07:36:18.965Z,93.06
2022-12-15T07:38:49.928Z,92.43
2022-12-15T07:41:18.694Z,92.49
2022-12-15T07:43:47.317Z,92.22
2022-12-15T07:46:16.346Z,92.36
2022-12-15T07:48:50.658Z,92.50
2022-12-15T07:51:20.461Z,91.97
2022-12-15T07:53:50.324Z,91.80
2022-12-15T07:56:18.614Z,91.96
2022-12-15T07:58:51.675Z,91.52
2022-12-15T08:01:19.075Z,92.70
2022-12-15T08:03:46.176Z,92.49
2022-12-15T08:06:14.791Z,92.47
2022-12-15T08:08:43.417Z,92.38
2022-12-15T08:11:15.226Z,92.10
2022-12-15T08:16:32.020Z,92.73
2022-12-15T08:18:59.246Z,92.07
2022-12-15T08:21:26.624Z,92.40
2022-12-15T08:23:54.127Z,91.63
2022-12-15T08:26:28.257Z,90.85
2022-12-15T08:29:11.873Z,91.81
2022-12-15T08:31:45.674Z,91.86
2022-12-15T08:34:13.145Z,92.43
2022-12-15T08:36:40.359Z,92.08
2022-12-15T08:39:07.566Z,91.74
2022-12-15T08:41:34.946Z,91.93
2022-12-15T08:44:02.647Z,91.67
2022-12-15T08:46:34.062Z,92.51
2022-12-15T08:49:02.528Z,92.06
2022-12-15T08:51:32.246Z,92.09
2022-12-15T08:54:01.030Z,92.12
2022-12-15T08:56:29.307Z,91.87
2022-12-15T08:58:58.598Z,91.55
2022-12-15T09:01:27.711Z,91.46
2022-12-15T09:03:57.048Z,91.29
2022-12-15T09:06:27.385Z,90.90
2022-12-15T09:08:59.880Z,91.48
2022-12-15T09:11:28.822Z,91.21
2022-12-15T09:13:56.458Z,91.20
2022-12-15T09:16:24.475Z,91.47
2022-12-15T09:18:54.299Z,90.95
2022-12-15T09:21:24.275Z,91.24
2022-12-15T09:23:52.368Z,90.88
2022-12-15T09:26:21.212Z,91.14
2022-12-15T09:28:50.626Z,90.79
2022-12-15T09:31:23.575Z,90.84
2022-12-15T09:33:53.023Z,90.30
2022-12-15T09:36:20.576Z,90.45
2022-12-15T09:38:47.901Z,90.10
2022-12-15T09:41:17.679Z,89.98
2022-12-15T09:44:20.431Z,89.31
2022-12-15T09:47:09.358Z,89.55
2022-12-15T09:49:44.427Z,87.69
2022-12-15T09:52:25.669Z,88.04
2022-12-15T09:54:53.684Z,87.63
2022-12-15T09:57:31.710Z,86.62
2022-12-15T10:00:08.629Z,87.44
2022-12-15T10:02:49.920Z,87.41
2022-12-15T10:06:15.392Z,87.66
2022-12-15T10:08:45.636Z,87.14
2022-12-15T10:11:44.488Z,87.40
2022-12-15T10:14:33.198Z,87.41
2022-12-15T10:17:23.786Z,86.56
2022-12-15T10:20:08.513Z,87.25
2022-12-15T10:22:37.617Z,87.43
2022-12-15T10:25:25.660Z,87.53
2022-12-15T10:28:16.331Z,89.21
2022-12-15T10:31:14.229Z,88.02
2022-12-15T10:33:48.627Z,87.51
2022-12-15T10:36:18.107Z,86.79
2022-12-15T10:38:50.548Z,88.32
2022-12-15T10:41:21.039Z,86.33
2022-12-15T10:43:51.190Z,84.76
2022-12-15T10:46:24.005Z,82.54
2022-12-15T10:48:52.507Z,83.01
2022-12-15T10:51:25.495Z,81.46
2022-12-15T10:54:10.361Z,82.35
2022-12-15T10:56:50.118Z,82.63
2022-12-15T10:59:24.071Z,81.16
2022-12-15T11:01:52.613Z,80.74
2022-12-15T11:04:28.606Z,81.20
2022-12-15T11:07:01.028Z,81.20
2022-12-15T11:09:36.975Z,82.53
2022-12-15T11:12:40.586Z,82.73
2022-12-15T11:15:23.693Z,83.36
2022-12-15T11:17:58.210Z,83.50
2022-12-15T11:20:32.973Z,83.43
2022-12-15T11:23:10.231Z,83.85
2022-12-15T11:25:42.788Z,84.49
2022-12-15T11:28:20.392Z,84.33
2022-12-15T11:31:16.759Z,85.11
2022-12-15T11:33:43.701Z,84.92
2022-12-15T11:36:20.077Z,84.08
2022-12-15T11:39:04.556Z,84.08
2022-12-15T11:41:45.036Z,83.37
2022-12-15T11:44:27.129Z,83.40
2022-12-15T11:47:16.918Z,83.34
2022-12-15T11:49:48.948Z,82.07
2022-12-15T11:52:33.619Z,82.29
2022-12-15T11:55:30.414Z,82.61
2022-12-15T11:58:15.858Z,82.04
2022-12-15T12:00:56.606Z,82.45
2022-12-15T12:03:39.987Z,83.31
2022-12-15T12:06:14.279Z,83.61
2022-12-15T12:09:14.485Z,82.94
2022-12-15T12:11:45.108Z,82.67
2022-12-15T12:14:35.168Z,81.18
2022-12-15T12:17:11.773Z,80.96
2022-12-15T12:19:45.553Z,80.76
2022-12-15T12:22:18.261Z,80.33
2022-12-15T12:24:50.784Z,79.16
2022-12-15T12:27:42.191Z,79.46
2022-12-15T12:30:15.788Z,79.84
2022-12-15T12:32:51.809Z,78.98
2022-12-15T12:35:33.830Z,79.96
2022-12-15T12:38:04.408Z,79.64
2022-12-15T12:40:41.433Z,78.68
2022-12-15T12:43:13.625Z,79.00
2022-12-15T12:45:50.293Z,80.38
2022-12-15T12:48:24.959Z,80.32
2022-12-15T12:51:11.526Z,79.83
2022-12-15T12:53:38.786Z,79.75
2022-12-15T12:56:05.968Z,78.88
2022-12-15T12:58:42.628Z,78.43
2022-12-15T13:01:32.860Z,78.67
2022-12-15T13:04:29.868Z,79.32
2022-12-15T13:07:00.366Z,79.77
2022-12-15T13:09:44.298Z,79.56
2022-12-15T13:12:53.689Z,80.16
2022-12-15T13:15:30.555Z,79.86
2022-12-15T13:18:17.031Z,79.61
2022-12-15T13:20:50.446Z,79.46
2022-12-15T13:23:24.173Z,79.54
2022-12-15T13:26:00.756Z,78.84
2022-12-15T13:28:43.269Z,78.03
2022-12-15T13:31:22.861Z,78.34
2022-12-15T13:33:53.907Z,75.82
2022-12-15T13:36:40.250Z,76.19
2022-12-15T13:39:16.446Z,76.22
2022-12-15T13:42:23.639Z,74.71
2022-12-15T13:45:04.398Z,75.89
2022-12-15T13:47:31.870Z,75.94
2022-12-15T13:53:17.905Z,75.48
2022-12-15T13:55:41.510Z,75.72
2022-12-15T13:58:18.530Z,76.00
2022-12-15T14:00:51.699Z,73.30
2022-12-15T14:03:19.376Z,73.77
2022-12-15T14:05:54.688Z,74.88
2022-12-15T14:08:23.619Z,74.85
2022-12-15T14:10:52.968Z,74.64
2022-12-15T14:13:25.958Z,74.52
2022-12-15T14:15:59.903Z,75.01
2022-12-15T14:18:28.869Z,75.67
2022-12-15T14:20:56.878Z,75.00
2022-12-15T14:23:30.497Z,75.63
2022-12-15T14:26:03.947Z,76.00
2022-12-15T14:28:34.970Z,75.36
2022-12-15T14:31:15.281Z,76.44
2022-12-15T14:33:44.788Z,76.74
2022-12-15T14:36:20.416Z,77.29
2022-12-15T14:39:01.187Z,77.95
2022-12-15T14:41:32.386Z,77.80
2022-12-15T14:44:31.796Z,77.33
2022-12-15T14:46:55.068Z,77.65
2022-12-15T14:49:26.066Z,78.07
2022-12-15T14:51:57.987Z,78.25
2022-12-15T14:54:37.893Z,77.55
2022-12-15T14:57:21.604Z,78.25
2022-12-15T14:59:49.605Z,78.40
2022-12-15T15:02:28.894Z,79.54
2022-12-15T15:03:05.643Z,75.13
2022-12-15T15:04:58.331Z,79.99
2022-12-15T15:07:26.697Z,80.72
2022-12-15T15:09:54.646Z,81.04
2022-12-15T15:12:24.623Z,81.25
2022-12-15T15:15:04.527Z,81.83
2022-12-15T15:17:39.487Z,81.99
2022-12-15T15:20:17.856Z,82.09
2022-12-15T15:22:47.129Z,81.57
2022-12-15T15:25:40.855Z,81.98
2022-12-15T15:28:25.557Z,82.74
2022-12-15T15:30:59.663Z,82.15
2022-12-15T15:33:27.888Z,82.91
2022-12-15T15:36:00.046Z,83.06
2022-12-15T15:38:35.207Z,82.90
2022-12-15T15:41:12.787Z,82.34
2022-12-15T15:43:42.488Z,82.37
2022-12-15T15:46:25.867Z,82.52
2022-12-15T15:48:58.672Z,81.18
2022-12-15T15:51:27.087Z,80.64
2022-12-15T15:53:56.539Z,80.88
2022-12-15T15:56:24.111Z,81.06
2022-12-15T15:58:51.827Z,79.86
2022-12-15T16:01:19.356Z,80.68
2022-12-15T16:03:50.495Z,80.96
2022-12-15T16:06:20.228Z,81.35
2022-12-15T16:08:50.889Z,82.30
2022-12-15T16:11:18.324Z,82.37
2022-12-15T16:13:45.585Z,82.78
2022-12-15T16:16:19.207Z,82.85
2022-12-15T16:18:46.922Z,83.15
2022-12-15T16:21:15.546Z,83.88
2022-12-15T16:23:45.418Z,84.24
2022-12-15T16:26:18.629Z,84.88
2022-12-15T16:28:45.931Z,84.63
2022-12-15T16:31:16.509Z,85.04
2022-12-15T16:33:44.358Z,84.66
2022-12-15T16:36:15.250Z,85.72
2022-12-15T16:38:43.781Z,87.17
2022-12-15T16:41:15.647Z,87.89
2022-12-15T16:43:47.973Z,88.90
2022-12-15T16:46:20.561Z,89.30
2022-12-15T16:49:28.010Z,89.48
2022-12-15T16:51:57.688Z,90.57
2022-12-15T16:54:29.557Z,90.48
2022-12-15T16:56:58.237Z,90.16
2022-12-15T16:59:33.879Z,90.34
2022-12-15T17:02:02.374Z,90.04
2022-12-15T17:04:29.687Z,89.50
2022-12-15T17:06:57.310Z,89.71
2022-12-15T17:10:32.968Z,90.43
2022-12-15T17:17:48.285Z,91.17
2022-12-15T17:20:30.482Z,91.70
2022-12-15T17:23:07.752Z,91.26
2022-12-15T17:28:31.502Z,90.78
2022-12-15T17:30:59.994Z,91.01
2022-12-15T17:33:30.523Z,90.78
2022-12-15T17:36:04.581Z,91.08
2022-12-15T17:38:32.170Z,90.52
2022-12-15T17:40:59.548Z,91.06
2022-12-15T17:43:33.692Z,90.46
2022-12-15T17:46:03.434Z,91.25
2022-12-15T17:48:30.860Z,91.00
2022-12-15T17:50:58.874Z,91.29
2022-12-15T17:53:26.533Z,91.01
2022-12-15T17:55:54.253Z,91.25
2022-12-15T17:58:24.668Z,91.08
2022-12-15T18:00:54.023Z,91.28
2022-12-15T18:03:21.491Z,91.19
2022-12-15T18:05:51.137Z,91.22
2022-12-15T18:08:36.372Z,90.96
2022-12-15T18:11:03.364Z,90.55
2022-12-15T18:13:35.750Z,90.63
2022-12-15T18:16:02.979Z,90.73
2022-12-15T18:18:30.068Z,90.60
2022-12-15T18:21:02.674Z,90.78
2022-12-15T18:23:31.161Z,91.49
2022-12-15T18:26:02.910Z,91.56
2022-12-15T18:28:32.542Z,91.69
2022-12-15T18:31:22.914Z,91.68
2022-12-15T18:33:50.140Z,91.99
2022-12-15T18:36:17.095Z,92.18
2022-12-15T18:38:44.000Z,92.03
2022-12-15T18:41:16.286Z,92.15
2022-12-15T18:43:44.832Z,92.34
2022-12-15T18:46:16.089Z,92.40
2022-12-15T18:48:43.693Z,92.55
2022-12-15T18:51:19.888Z,92.76
2022-12-15T18:53:48.924Z,92.19
2022-12-15T18:56:18.540Z,92.39
2022-12-15T18:58:46.049Z,92.11
2022-12-15T19:01:13.519Z,91.96
2022-12-15T19:03:41.693Z,92.05
2022-12-15T19:06:35.081Z,91.99
2022-12-15T19:09:08.957Z,92.42
2022-12-15T19:11:36.589Z,91.86
2022-12-15T19:14:04.270Z,91.55
2022-12-15T19:16:51.835Z,91.46
2022-12-15T19:19:37.749Z,91.52
2022-12-15T19:22:27.129Z,92.08
2022-12-15T19:24:54.780Z,91.90
2022-12-15T19:27:26.599Z,92.66
2022-12-15T19:29:54.799Z,92.79
2022-12-15T19:32:23.150Z,92.61
2022-12-15T19:34:51.282Z,92.34
2022-12-15T19:37:28.714Z,92.44
2022-12-15T19:39:57.826Z,91.90
2022-12-15T19:42:35.918Z,92.37
2022-12-15T19:45:19.560Z,92.33
2022-12-15T19:47:47.010Z,92.29
2022-12-15T19:50:19.849Z,92.34
2022-12-15T19:52:50.600Z,91.88
2022-12-15T19:55:21.802Z,91.95
2022-12-15T19:57:48.990Z,91.69
2022-12-15T20:00:18.329Z,92.14
2022-12-15T20:02:46.139Z,92.32
2022-12-15T20:05:13.328Z,92.44
2022-12-15T20:07:41.082Z,92.56
2022-12-15T20:10:22.017Z,92.31
2022-12-15T20:12:51.603Z,92.15
2022-12-15T20:15:26.334Z,92.08
2022-12-15T20:17:57.641Z,92.26
2022-12-15T20:20:27.160Z,92.08
2022-12-15T20:22:56.759Z,91.65
2022-12-15T20:25:31.005Z,92.04
2022-12-15T20:28:00.420Z,91.40
2022-12-15T20:30:33.173Z,91.16
2022-12-15T20:33:02.251Z,91.81
2022-12-15T20:35:32.070Z,91.74
2022-12-15T20:37:59.820Z,91.09
2022-12-15T20:40:30.022Z,91.78
2022-12-15T20:42:58.020Z,91.29
2022-12-15T20:45:27.083Z,91.22
2022-12-15T20:48:00.530Z,91.46
2022-12-15T20:51:57.589Z,91.50
2022-12-15T20:54:45.689Z,91.65
2022-12-15T20:57:16.642Z,91.46
2022-12-15T20:59:45.148Z,91.88
2022-12-15T21:02:21.023Z,92.40
2022-12-15T21:04:49.189Z,92.08
2022-12-15T21:07:16.820Z,92.46
2022-12-15T21:09:44.240Z,91.59
2022-12-15T21:12:22.969Z,91.70
2022-12-15T21:14:50.531Z,91.61
2022-12-15T21:17:20.178Z,91.55
2022-12-15T21:19:47.576Z,92.26
2022-12-15T21:22:19.090Z,92.10
2022-12-15T21:24:50.351Z,92.92
2022-12-15T21:27:20.080Z,93.12
2022-12-15T21:29:52.349Z,92.91
2022-12-15T21:32:23.480Z,92.92
2022-12-15T21:34:51.808Z,92.54
2022-12-15T21:37:28.498Z,92.83
2022-12-15T22:03:14.090Z,92.95
2022-12-15T22:05:42.049Z,93.07
2022-12-15T22:11:23.400Z,92.47
2022-12-15T22:13:51.948Z,92.78
2022-12-15T22:16:20.142Z,92.77
2022-12-15T22:18:52.590Z,92.74
2022-12-15T22:21:26.050Z,93.29
2022-12-15T22:23:53.530Z,93.27
2022-12-15T22:26:30.073Z,93.64
2022-12-15T22:29:01.295Z,93.14
2022-12-15T22:31:29.448Z,92.78
2022-12-15T22:33:56.991Z,93.09
2022-12-15T22:36:24.381Z,92.61
2022-12-15T22:38:51.641Z,92.67
2022-12-15T22:41:21.719Z,93.14
2022-12-15T22:44:07.421Z,92.57
2022-12-15T22:50:38.550Z,92.91
2022-12-15T22:53:21.682Z,93.17
2022-12-15T22:55:52.489Z,93.24
2022-12-15T22:58:26.108Z,92.71
2022-12-15T23:00:56.031Z,92.92
2022-12-15T23:03:23.471Z,93.12
2022-12-15T23:05:51.379Z,93.14
2022-12-15T23:08:19.320Z,93.02
2022-12-15T23:11:05.050Z,92.77
2022-12-15T23:13:32.789Z,92.66
2022-12-15T23:16:19.251Z,92.82
2022-12-15T23:19:02.616Z,92.43
2022-12-15T23:21:29.822Z,92.23
2022-12-15T23:23:57.882Z,92.55
2022-12-15T23:26:26.268Z,92.09
2022-12-15T23:28:56.943Z,91.99
2022-12-15T23:31:24.263Z,91.76
2022-12-15T23:33:52.079Z,91.38
2022-12-15T23:36:19.448Z,90.85
2022-12-15T23:38:46.611Z,90.82
2022-12-15T23:41:18.340Z,90.44
2022-12-15T23:43:46.548Z,90.12
2022-12-15T23:46:14.382Z,90.14
2022-12-15T23:48:43.420Z,89.86
2022-12-15T23:51:13.829Z,90.53
2022-12-15T23:53:41.671Z,89.73
2022-12-15T23:56:15.603Z,90.57
2022-12-15T23:58:44.199Z,90.34
